sensor_id;sensor_type;location;lat;lon;timestamp;pressure;altitude;pressure_sealevel;temperature;humidity
38939;BME280;24211;49.980;19.776;2023-03-22T00:02:13;99308.09;;;9.02;100.00
38939;BME280;24211;49.980;19.776;2023-03-22T00:04:41;99308.09;;;9.02;100.00
38939;BME280;24211;49.980;19.776;2023-03-22T00:07:09;99305.84;;;8.99;100.00
38939;BME280;24211;49.980;19.776;2023-03-22T00:09:37;99299.94;;;8.97;100.00
38939;BME280;24211;49.980;19.776;2023-03-22T00:12:05;99304.06;;;8.93;100.00
38939;BME280;24211;49.980;19.776;2023-03-22T00:14:32;99311.00;;;8.94;100.00
38939;BME280;24211;49.980;19.776;2023-03-22T00:17:00;99299.16;;;8.90;100.00
38939;BME280;24211;49.980;19.776;2023-03-22T00:19:28;99304.47;;;8.90;100.00
38939;BME280;24211;49.980;19.776;2023-03-22T00:21:56;99302.25;;;8.87;100.00
38939;BME280;24211;49.980;19.776;2023-03-22T00:24:23;99299.56;;;8.87;100.00
38939;BME280;24211;49.980;19.776;2023-03-22T00:26:51;99294.69;;;8.84;100.00
38939;BME280;24211;49.980;19.776;2023-03-22T00:29:19;99293.47;;;8.80;100.00
38939;BME280;24211;49.980;19.776;2023-03-22T00:31:48;99285.91;;;8.77;100.00
38939;BME280;24211;49.980;19.776;2023-03-22T00:34:18;99284.69;;;8.73;100.00
38939;BME280;24211;49.980;19.776;2023-03-22T00:36:46;99284.09;;;8.71;100.00
38939;BME280;24211;49.980;19.776;2023-03-22T00:39:14;99296.81;;;8.69;100.00
38939;BME280;24211;49.980;19.776;2023-03-22T00:41:42;99288.66;;;8.64;100.00
38939;BME280;24211;49.980;19.776;2023-03-22T00:44:10;99291.31;;;8.64;100.00
38939;BME280;24211;49.980;19.776;2023-03-22T00:46:39;99274.75;;;8.62;100.00
38939;BME280;24211;49.980;19.776;2023-03-22T00:49:06;99268.59;;;8.55;100.00
38939;BME280;24211;49.980;19.776;2023-03-22T00:51:34;99266.56;;;8.50;100.00
38939;BME280;24211;49.980;19.776;2023-03-22T00:54:02;99279.69;;;8.52;100.00
38939;BME280;24211;49.980;19.776;2023-03-22T00:56:30;99280.13;;;8.49;100.00
38939;BME280;24211;49.980;19.776;2023-03-22T00:59:08;99276.84;;;8.47;100.00
38939;BME280;24211;49.980;19.776;2023-03-22T01:01:37;99265.78;;;8.43;100.00
38939;BME280;24211;49.980;19.776;2023-03-22T01:04:05;99263.78;;;8.39;100.00
38939;BME280;24211;49.980;19.776;2023-03-22T01:06:34;99268.09;;;8.40;100.00
38939;BME280;24211;49.980;19.776;2023-03-22T01:09:01;99262.94;;;8.38;100.00
38939;BME280;24211;49.980;19.776;2023-03-22T01:11:30;99262.13;;;8.38;100.00
38939;BME280;24211;49.980;19.776;2023-03-22T01:13:58;99252.72;;;8.35;100.00
38939;BME280;24211;49.980;19.776;2023-03-22T01:16:26;99249.06;;;8.30;100.00
38939;BME280;24211;49.980;19.776;2023-03-22T01:18:54;99245.81;;;8.28;100.00
38939;BME280;24211;49.980;19.776;2023-03-22T01:21:22;99242.09;;;8.29;100.00
38939;BME280;24211;49.980;19.776;2023-03-22T01:23:50;99250.31;;;8.27;100.00
38939;BME280;24211;49.980;19.776;2023-03-22T01:26:18;99250.47;;;8.26;100.00
38939;BME280;24211;49.980;19.776;2023-03-22T01:28:46;99239.22;;;8.24;100.00
38939;BME280;24211;49.980;19.776;2023-03-22T01:31:14;99238.84;;;8.27;100.00
38939;BME280;24211;49.980;19.776;2023-03-22T01:33:41;99242.09;;;8.22;100.00
38939;BME280;24211;49.980;19.776;2023-03-22T01:36:10;99229.81;;;8.21;100.00
38939;BME280;24211;49.980;19.776;2023-03-22T01:38:40;99223.88;;;8.19;100.00
38939;BME280;24211;49.980;19.776;2023-03-22T01:41:09;99220.03;;;8.15;100.00
38939;BME280;24211;49.980;19.776;2023-03-22T01:43:39;99209.78;;;8.12;100.00
38939;BME280;24211;49.980;19.776;2023-03-22T01:46:08;99213.09;;;8.08;100.00
38939;BME280;24211;49.980;19.776;2023-03-22T01:48:41;99209.38;;;8.09;100.00
38939;BME280;24211;49.980;19.776;2023-03-22T01:51:21;99203.88;;;8.04;100.00
38939;BME280;24211;49.980;19.776;2023-03-22T01:54:25;99209.66;;;8.01;100.00
38939;BME280;24211;49.980;19.776;2023-03-22T01:57:01;99202.91;;;7.98;100.00
38939;BME280;24211;49.980;19.776;2023-03-22T01:59:38;99201.66;;;8.01;100.00
38939;BME280;24211;49.980;19.776;2023-03-22T02:02:16;99200.84;;;8.00;100.00
38939;BME280;24211;49.980;19.776;2023-03-22T02:04:53;99205.34;;;8.00;100.00
38939;BME280;24211;49.980;19.776;2023-03-22T02:07:28;99204.94;;;8.03;100.00
38939;BME280;24211;49.980;19.776;2023-03-22T02:10:00;99200.00;;;8.00;100.00
38939;BME280;24211;49.980;19.776;2023-03-22T02:13:03;99195.09;;;7.97;100.00
38939;BME280;24211;49.980;19.776;2023-03-22T02:16:32;99193.50;;;7.96;100.00
38939;BME280;24211;49.980;19.776;2023-03-22T02:19:57;99194.91;;;7.91;100.00
38939;BME280;24211;49.980;19.776;2023-03-22T02:29:15;99185.56;;;7.82;100.00
38939;BME280;24211;49.980;19.776;2023-03-22T02:35:32;99174.31;;;7.80;100.00
38939;BME280;24211;49.980;19.776;2023-03-22T02:39:01;99175.72;;;7.76;100.00
38939;BME280;24211;49.980;19.776;2023-03-22T02:51:08;99170.06;;;7.60;100.00
38939;BME280;24211;49.980;19.776;2023-03-22T02:55:57;99171.50;;;7.62;100.00
38939;BME280;24211;49.980;19.776;2023-03-22T02:58:35;99166.16;;;7.62;100.00
38939;BME280;24211;49.980;19.776;2023-03-22T03:01:09;99165.78;;;7.59;100.00
38939;BME280;24211;49.980;19.776;2023-03-22T03:03:40;99178.03;;;7.60;100.00
38939;BME280;24211;49.980;19.776;2023-03-22T03:06:14;99178.88;;;7.60;100.00
38939;BME280;24211;49.980;19.776;2023-03-22T03:08:45;99179.28;;;7.57;100.00
38939;BME280;24211;49.980;19.776;2023-03-22T03:11:18;99172.75;;;7.53;100.00
38939;BME280;24211;49.980;19.776;2023-03-22T03:13:49;99175.19;;;7.55;100.00
38939;BME280;24211;49.980;19.776;2023-03-22T03:16:21;99172.75;;;7.53;100.00
38939;BME280;24211;49.980;19.776;2023-03-22T03:18:59;99183.78;;;7.50;100.00
38939;BME280;24211;49.980;19.776;2023-03-22T03:24:32;99190.56;;;7.46;100.00
38939;BME280;24211;49.980;19.776;2023-03-22T03:27:12;99182.59;;;7.46;100.00
38939;BME280;24211;49.980;19.776;2023-03-22T03:32:50;99188.31;;;7.43;100.00
38939;BME280;24211;49.980;19.776;2023-03-22T03:35:25;99184.22;;;7.41;100.00
38939;BME280;24211;49.980;19.776;2023-03-22T03:38:07;99190.38;;;7.41;100.00
38939;BME280;24211;49.980;19.776;2023-03-22T03:40:49;99190.38;;;7.41;100.00
38939;BME280;24211;49.980;19.776;2023-03-22T03:43:21;99194.03;;;7.40;100.00
38939;BME280;24211;49.980;19.776;2023-03-22T03:45:53;99194.03;;;7.40;100.00
38939;BME280;24211;49.980;19.776;2023-03-22T03:48:27;99202.00;;;7.40;100.00
38939;BME280;24211;49.980;19.776;2023-03-22T03:50:56;99196.69;;;7.40;100.00
38939;BME280;24211;49.980;19.776;2023-03-22T03:53:24;99195.28;;;7.38;100.00
38939;BME280;24211;49.980;19.776;2023-03-22T03:55:52;99197.75;;;7.39;100.00
38939;BME280;24211;49.980;19.776;2023-03-22T03:58:21;99193.44;;;7.38;100.00
38939;BME280;24211;49.980;19.776;2023-03-22T04:00:49;99191.19;;;7.35;100.00
38939;BME280;24211;49.980;19.776;2023-03-22T04:03:20;99192.22;;;7.34;100.00
38939;BME280;24211;49.980;19.776;2023-03-22T04:06:05;99194.88;;;7.34;100.00
38939;BME280;24211;49.980;19.776;2023-03-22T04:08:39;99196.94;;;7.32;100.00
38939;BME280;24211;49.980;19.776;2023-03-22T04:11:08;99191.63;;;7.32;100.00
38939;BME280;24211;49.980;19.776;2023-03-22T04:13:36;99198.97;;;7.30;100.00
38939;BME280;24211;49.980;19.776;2023-03-22T04:16:09;99201.84;;;7.29;100.00
38939;BME280;24211;49.980;19.776;2023-03-22T04:18:38;99210.03;;;7.27;100.00
38939;BME280;24211;49.980;19.776;2023-03-22T04:21:07;99206.72;;;7.25;100.00
38939;BME280;24211;49.980;19.776;2023-03-22T04:23:47;99206.72;;;7.25;100.00
38939;BME280;24211;49.980;19.776;2023-03-22T04:26:18;99208.78;;;7.23;100.00
38939;BME280;24211;49.980;19.776;2023-03-22T04:28:56;99214.09;;;7.23;100.00
38939;BME280;24211;49.980;19.776;2023-03-22T04:31:25;99209.59;;;7.23;100.00
38939;BME280;24211;49.980;19.776;2023-03-22T04:34:00;99212.47;;;7.22;100.00
38939;BME280;24211;49.980;19.776;2023-03-22T04:36:53;99219.81;;;7.20;100.00
38939;BME280;24211;49.980;19.776;2023-03-22T04:39:27;99221.88;;;7.18;100.00
38939;BME280;24211;49.980;19.776;2023-03-22T04:42:14;99222.69;;;7.18;100.00
38939;BME280;24211;49.980;19.776;2023-03-22T04:44:44;99221.88;;;7.18;100.00
38939;BME280;24211;49.980;19.776;2023-03-22T04:47:12;99219.63;;;7.15;100.00
38939;BME280;24211;49.980;19.776;2023-03-22T04:49:40;99220.44;;;7.15;100.00
38939;BME280;24211;49.980;19.776;2023-03-22T04:52:08;99222.28;;;7.15;100.00
38939;BME280;24211;49.980;19.776;2023-03-22T04:54:38;99227.81;;;7.13;100.00
38939;BME280;24211;49.980;19.776;2023-03-22T04:57:06;99230.47;;;7.13;100.00
38939;BME280;24211;49.980;19.776;2023-03-22T04:59:41;99233.13;;;7.13;100.00
38939;BME280;24211;49.980;19.776;2023-03-22T05:02:09;99241.91;;;7.14;100.00
38939;BME280;24211;49.980;19.776;2023-03-22T05:04:41;99246.41;;;7.13;100.00
38939;BME280;24211;49.980;19.776;2023-03-22T05:07:29;99237.59;;;7.13;100.00
38939;BME280;24211;49.980;19.776;2023-03-22T05:10:00;99233.34;;;7.12;100.00
38939;BME280;24211;49.980;19.776;2023-03-22T05:12:30;99234.94;;;7.13;100.00
38939;BME280;24211;49.980;19.776;2023-03-22T05:15:16;99239.25;;;7.14;100.00
38939;BME280;24211;49.980;19.776;2023-03-22T05:17:44;99228.41;;;7.15;100.00
38939;BME280;24211;49.980;19.776;2023-03-22T05:20:12;99234.53;;;7.16;100.00
38939;BME280;24211;49.980;19.776;2023-03-22T05:22:43;99230.88;;;7.17;100.00
38939;BME280;24211;49.980;19.776;2023-03-22T05:25:12;99230.88;;;7.17;100.00
38939;BME280;24211;49.980;19.776;2023-03-22T05:27:43;99225.56;;;7.17;100.00
38939;BME280;24211;49.980;19.776;2023-03-22T05:30:31;99230.88;;;7.17;100.00
38939;BME280;24211;49.980;19.776;2023-03-22T05:33:08;99222.28;;;7.15;100.00
38939;BME280;24211;49.980;19.776;2023-03-22T05:35:42;99229.22;;;7.16;100.00
38939;BME280;24211;49.980;19.776;2023-03-22T05:38:10;99229.22;;;7.16;100.00
38939;BME280;24211;49.980;19.776;2023-03-22T05:40:44;99226.16;;;7.19;100.00
38939;BME280;24211;49.980;19.776;2023-03-22T05:43:12;99228.44;;;7.22;100.00
38939;BME280;24211;49.980;19.776;2023-03-22T05:45:45;99219.81;;;7.20;100.00
38939;BME280;24211;49.980;19.776;2023-03-22T05:48:28;99224.31;;;7.13;100.00
38939;BME280;24211;49.980;19.776;2023-03-22T05:50:56;99220.25;;;7.17;100.00
38939;BME280;24211;49.980;19.776;2023-03-22T05:53:23;99217.97;;;7.20;100.00
38939;BME280;24211;49.980;19.776;2023-03-22T05:56:13;99224.31;;;7.26;100.00
38939;BME280;24211;49.980;19.776;2023-03-22T05:58:45;99215.34;;;7.27;100.00
38939;BME280;24211;49.980;19.776;2023-03-22T06:01:16;99225.97;;;7.27;100.00
38939;BME280;24211;49.980;19.776;2023-03-22T06:03:47;99222.28;;;7.28;100.00
38939;BME280;24211;49.980;19.776;2023-03-22T06:06:23;99235.78;;;7.33;100.00
38939;BME280;24211;49.980;19.776;2023-03-22T06:09:02;99233.53;;;7.37;100.00
38939;BME280;24211;49.980;19.776;2023-03-22T06:11:46;99236.19;;;7.37;100.00
38939;BME280;24211;49.980;19.776;2023-03-22T06:14:15;99234.53;;;7.42;100.00
38939;BME280;24211;49.980;19.776;2023-03-22T06:16:57;99246.41;;;7.46;100.00
38939;BME280;24211;49.980;19.776;2023-03-22T06:19:25;99235.34;;;7.49;100.00
38939;BME280;24211;49.980;19.776;2023-03-22T06:21:53;99243.13;;;7.51;100.00
38939;BME280;24211;49.980;19.776;2023-03-22T06:24:24;99242.28;;;7.57;100.00
38939;BME280;24211;49.980;19.776;2023-03-22T06:27:02;99238.19;;;7.61;100.00
38939;BME280;24211;49.980;19.776;2023-03-22T06:29:30;99241.25;;;7.64;100.00
38939;BME280;24211;49.980;19.776;2023-03-22T06:32:02;99234.91;;;7.65;100.00
38939;BME280;24211;49.980;19.776;2023-03-22T06:34:31;99236.94;;;7.70;100.00
38939;BME280;24211;49.980;19.776;2023-03-22T06:37:00;99232.03;;;7.73;100.00
38939;BME280;24211;49.980;19.776;2023-03-22T06:39:39;99228.34;;;7.74;100.00
38939;BME280;24211;49.980;19.776;2023-03-22T06:42:08;99237.34;;;7.80;100.00
38939;BME280;24211;49.980;19.776;2023-03-22T06:44:37;99227.28;;;7.82;100.00
38939;BME280;24211;49.980;19.776;2023-03-22T06:47:13;99219.31;;;7.82;100.00
38939;BME280;24211;49.980;19.776;2023-03-22T06:50:08;99224.00;;;7.86;100.00
38939;BME280;24211;49.980;19.776;2023-03-22T06:52:55;99211.94;;;7.90;100.00
38939;BME280;24211;49.980;19.776;2023-03-22T06:55:22;99211.53;;;7.94;100.00
38939;BME280;24211;49.980;19.776;2023-03-22T06:57:50;99215.97;;;8.00;100.00
38939;BME280;24211;49.980;19.776;2023-03-22T07:00:18;99221.69;;;8.10;100.00
38939;BME280;24211;49.980;19.776;2023-03-22T07:02:47;99213.03;;;8.21;100.00
38939;BME280;24211;49.980;19.776;2023-03-22T07:05:32;99219.78;;;8.30;100.00
38939;BME280;24211;49.980;19.776;2023-03-22T07:08:00;99220.56;;;8.37;100.00
38939;BME280;24211;49.980;19.776;2023-03-22T07:10:28;99226.06;;;8.42;100.00
38939;BME280;24211;49.980;19.776;2023-03-22T07:12:56;99226.44;;;8.45;100.00
38939;BME280;24211;49.980;19.776;2023-03-22T07:15:24;99227.25;;;8.52;100.00
38939;BME280;24211;49.980;19.776;2023-03-22T07:18:03;99231.50;;;8.60;100.00
38939;BME280;24211;49.980;19.776;2023-03-22T07:20:33;99225.09;;;8.68;100.00
38939;BME280;24211;49.980;19.776;2023-03-22T07:23:08;99229.81;;;8.72;100.00
38939;BME280;24211;49.980;19.776;2023-03-22T07:25:46;99216.19;;;8.80;100.00
38939;BME280;24211;49.980;19.776;2023-03-22T07:28:25;99220.03;;;8.91;100.00
38939;BME280;24211;49.980;19.776;2023-03-22T07:31:03;99217.03;;;9.05;100.00
38939;BME280;24211;49.980;19.776;2023-03-22T07:33:43;99221.53;;;9.11;100.00
38939;BME280;24211;49.980;19.776;2023-03-22T07:36:11;99233.31;;;9.22;100.00
38939;BME280;24211;49.980;19.776;2023-03-22T07:38:39;99226.28;;;9.28;100.00
38939;BME280;24211;49.980;19.776;2023-03-22T07:41:12;99217.22;;;9.35;100.00
38939;BME280;24211;49.980;19.776;2023-03-22T07:44:12;99213.75;;;9.53;100.00
38939;BME280;24211;49.980;19.776;2023-03-22T07:47:07;99216.28;;;9.66;100.00
38939;BME280;24211;49.980;19.776;2023-03-22T07:49:44;99214.06;;;9.81;100.00
38939;BME280;24211;49.980;19.776;2023-03-22T07:52:15;99215.78;;;9.94;100.00
38939;BME280;24211;49.980;19.776;2023-03-22T07:54:43;99209.47;;;10.06;100.00
38939;BME280;24211;49.980;19.776;2023-03-22T07:57:11;99206.06;;;10.17;100.00
38939;BME280;24211;49.980;19.776;2023-03-22T07:59:46;99206.16;;;10.29;100.00
38939;BME280;24211;49.980;19.776;2023-03-22T08:02:13;99203.28;;;10.42;100.00
38939;BME280;24211;49.980;19.776;2023-03-22T08:04:49;99206.03;;;10.54;100.00
38939;BME280;24211;49.980;19.776;2023-03-22T08:07:35;99204.19;;;10.66;100.00
38939;BME280;24211;49.980;19.776;2023-03-22T08:10:04;99204.47;;;10.76;100.00
38939;BME280;24211;49.980;19.776;2023-03-22T08:12:34;99204.94;;;10.96;100.00
38939;BME280;24211;49.980;19.776;2023-03-22T08:15:11;99202.78;;;11.16;100.00
38939;BME280;24211;49.980;19.776;2023-03-22T08:17:41;99205.94;;;11.36;100.00
38939;BME280;24211;49.980;19.776;2023-03-22T08:20:15;99190.13;;;11.46;100.00
38939;BME280;24211;49.980;19.776;2023-03-22T08:22:53;99196.41;;;11.63;100.00
38939;BME280;24211;49.980;19.776;2023-03-22T08:25:52;99189.41;;;11.86;100.00
38939;BME280;24211;49.980;19.776;2023-03-22T08:28:21;99191.06;;;11.87;100.00
38939;BME280;24211;49.980;19.776;2023-03-22T08:30:49;99186.84;;;11.91;100.00
38939;BME280;24211;49.980;19.776;2023-03-22T08:33:21;99189.75;;;12.01;100.00
38939;BME280;24211;49.980;19.776;2023-03-22T08:35:51;99186.78;;;12.14;100.00
38939;BME280;24211;49.980;19.776;2023-03-22T08:38:19;99177.66;;;12.26;100.00
38939;BME280;24211;49.980;19.776;2023-03-22T08:41:01;99186.19;;;12.52;100.00
38939;BME280;24211;49.980;19.776;2023-03-22T08:43:29;99180.06;;;12.68;100.00
38939;BME280;24211;49.980;19.776;2023-03-22T08:45:58;99179.50;;;12.82;100.00
38939;BME280;24211;49.980;19.776;2023-03-22T08:48:26;99176.75;;;12.94;100.00
38939;BME280;24211;49.980;19.776;2023-03-22T08:51:11;99173.53;;;13.08;100.00
38939;BME280;24211;49.980;19.776;2023-03-22T08:53:50;99175.97;;;13.27;100.00
38939;BME280;24211;49.980;19.776;2023-03-22T08:56:37;99172.59;;;13.53;100.00
38939;BME280;24211;49.980;19.776;2023-03-22T08:59:25;99169.56;;;13.66;100.00
38939;BME280;24211;49.980;19.776;2023-03-22T09:02:11;99168.25;;;13.68;100.00
38939;BME280;24211;49.980;19.776;2023-03-22T09:04:40;99167.94;;;13.65;100.00
38939;BME280;24211;49.980;19.776;2023-03-22T09:07:08;99164.50;;;13.69;100.00
38939;BME280;24211;49.980;19.776;2023-03-22T09:09:36;99160.25;;;13.73;100.00
38939;BME280;24211;49.980;19.776;2023-03-22T09:12:05;99152.56;;;13.82;100.00
38939;BME280;24211;49.980;19.776;2023-03-22T09:14:35;99146.97;;;14.05;100.00
38939;BME280;24211;49.980;19.776;2023-03-22T09:17:08;99154.56;;;14.13;100.00
38939;BME280;24211;49.980;19.776;2023-03-22T09:19:36;99142.31;;;14.22;100.00
38939;BME280;24211;49.980;19.776;2023-03-22T09:22:04;99140.88;;;14.36;100.00
38939;BME280;24211;49.980;19.776;2023-03-22T09:24:40;99134.75;;;14.41;100.00
38939;BME280;24211;49.980;19.776;2023-03-22T09:27:09;99138.25;;;14.42;100.00
38939;BME280;24211;49.980;19.776;2023-03-22T09:29:36;99137.28;;;14.53;100.00
38939;BME280;24211;49.980;19.776;2023-03-22T09:32:13;99134.19;;;14.66;100.00
38939;BME280;24211;49.980;19.776;2023-03-22T09:34:42;99137.25;;;14.79;100.00
38939;BME280;24211;49.980;19.776;2023-03-22T09:37:10;99133.06;;;14.93;100.00
38939;BME280;24211;49.980;19.776;2023-03-22T09:39:45;99129.56;;;14.93;100.00
38939;BME280;24211;49.980;19.776;2023-03-22T09:42:41;99123.22;;;15.09;100.00
38939;BME280;24211;49.980;19.776;2023-03-22T09:45:21;99122.75;;;15.17;100.00
38939;BME280;24211;49.980;19.776;2023-03-22T09:47:58;99120.59;;;15.19;100.00
38939;BME280;24211;49.980;19.776;2023-03-22T09:50:31;99115.22;;;15.19;100.00
38939;BME280;24211;49.980;19.776;2023-03-22T09:53:01;99115.81;;;15.26;100.00
38939;BME280;24211;49.980;19.776;2023-03-22T09:58:58;99111.16;;;15.53;100.00
38939;BME280;24211;49.980;19.776;2023-03-22T10:01:49;99103.09;;;15.58;100.00
38939;BME280;24211;49.980;19.776;2023-03-22T10:04:43;99093.44;;;15.62;100.00
38939;BME280;24211;49.980;19.776;2023-03-22T10:07:33;99090.22;;;15.70;100.00
38939;BME280;24211;49.980;19.776;2023-03-22T10:10:18;99091.06;;;15.76;100.00
38939;BME280;24211;49.980;19.776;2023-03-22T10:15:55;99087.09;;;15.99;100.00
38939;BME280;24211;49.980;19.776;2023-03-22T10:18:33;99080.06;;;15.98;100.00
38939;BME280;24211;49.980;19.776;2023-03-22T10:21:14;99074.72;;;16.08;100.00
38939;BME280;24211;49.980;19.776;2023-03-22T10:24:14;99079.84;;;16.09;100.00
38939;BME280;24211;49.980;19.776;2023-03-22T10:26:47;99068.28;;;16.14;100.00
38939;BME280;24211;49.980;19.776;2023-03-22T10:29:38;99067.19;;;16.20;100.00
38939;BME280;24211;49.980;19.776;2023-03-22T10:32:31;99068.03;;;16.30;100.00
38939;BME280;24211;49.980;19.776;2023-03-22T10:35:17;99068.28;;;16.39;100.00
38939;BME280;24211;49.980;19.776;2023-03-22T10:37:50;99061.84;;;16.45;100.00
38939;BME280;24211;49.980;19.776;2023-03-22T10:40:31;99065.09;;;16.52;100.00
38939;BME280;24211;49.980;19.776;2023-03-22T10:43:12;99065.66;;;16.64;100.00
38939;BME280;24211;49.980;19.776;2023-03-22T10:45:45;99058.09;;;16.76;100.00
38939;BME280;24211;49.980;19.776;2023-03-22T10:50:53;99059.94;;;17.06;100.00
38939;BME280;24211;49.980;19.776;2023-03-22T10:53:39;99054.81;;;17.20;100.00
38939;BME280;24211;49.980;19.776;2023-03-22T10:56:14;99052.63;;;17.22;100.00
38939;BME280;24211;49.980;19.776;2023-03-22T10:58:48;99038.00;;;17.33;100.00
38939;BME280;24211;49.980;19.776;2023-03-22T11:01:46;99045.81;;;17.44;100.00
38939;BME280;24211;49.980;19.776;2023-03-22T11:04:21;99043.38;;;17.53;100.00
38939;BME280;24211;49.980;19.776;2023-03-22T11:06:52;99037.44;;;17.56;100.00
38939;BME280;24211;49.980;19.776;2023-03-22T11:09:25;99043.34;;;17.63;100.00
38939;BME280;24211;49.980;19.776;2023-03-22T11:11:57;99042.19;;;17.74;100.00
38939;BME280;24211;49.980;19.776;2023-03-22T11:14:45;99035.66;;;17.85;100.00
38939;BME280;24211;49.980;19.776;2023-03-22T11:17:23;99028.31;;;17.96;100.00
38939;BME280;24211;49.980;19.776;2023-03-22T11:20:02;99024.75;;;18.05;100.00
38939;BME280;24211;49.980;19.776;2023-03-22T11:22:42;99028.44;;;18.19;100.00
38939;BME280;24211;49.980;19.776;2023-03-22T11:28:17;99024.22;;;18.42;100.00
38939;BME280;24211;49.980;19.776;2023-03-22T11:31:05;99022.53;;;18.51;100.00
38939;BME280;24211;49.980;19.776;2023-03-22T11:33:34;99022.19;;;18.58;100.00
38939;BME280;24211;49.980;19.776;2023-03-22T11:36:16;99010.72;;;18.71;100.00
38939;BME280;24211;49.980;19.776;2023-03-22T11:38:46;99012.34;;;18.72;100.00
38939;BME280;24211;49.980;19.776;2023-03-22T11:41:25;99012.34;;;18.72;100.00
38939;BME280;24211;49.980;19.776;2023-03-22T11:44:00;99013.88;;;18.83;100.00
38939;BME280;24211;49.980;19.776;2023-03-22T11:46:30;99005.84;;;19.02;100.00
38939;BME280;24211;49.980;19.776;2023-03-22T11:49:04;99002.84;;;19.03;100.00
38939;BME280;24211;49.980;19.776;2023-03-22T11:52:14;99005.50;;;19.08;100.00
38939;BME280;24211;49.980;19.776;2023-03-22T11:54:45;99000.28;;;19.12;100.00
38939;BME280;24211;49.980;19.776;2023-03-22T11:57:25;98995.22;;;19.29;100.00
38939;BME280;24211;49.980;19.776;2023-03-22T12:00:06;98995.47;;;19.56;100.00
38939;BME280;24211;49.980;19.776;2023-03-22T12:02:52;98995.56;;;19.70;100.00
38939;BME280;24211;49.980;19.776;2023-03-22T12:05:27;98985.75;;;19.74;100.00
38939;BME280;24211;49.980;19.776;2023-03-22T12:08:44;98980.63;;;19.91;100.00
38939;BME280;24211;49.980;19.776;2023-03-22T12:11:42;98980.09;;;19.89;100.00
38939;BME280;24211;49.980;19.776;2023-03-22T12:17:04;98972.09;;;20.16;100.00
38939;BME280;24211;49.980;19.776;2023-03-22T12:19:57;98978.53;;;20.20;100.00
38939;BME280;24211;49.980;19.776;2023-03-22T12:22:35;98976.44;;;20.17;100.00
38939;BME280;24211;49.980;19.776;2023-03-22T12:25:32;98971.41;;;20.29;100.00
38939;BME280;24211;49.980;19.776;2023-03-22T12:28:08;98966.16;;;20.33;100.00
38939;BME280;24211;49.980;19.776;2023-03-22T12:30:45;98957.53;;;20.44;100.00
38939;BME280;24211;49.980;19.776;2023-03-22T12:33:23;98956.78;;;20.57;100.00
38939;BME280;24211;49.980;19.776;2023-03-22T12:36:01;98958.22;;;20.68;100.00
38939;BME280;24211;49.980;19.776;2023-03-22T12:38:53;98949.88;;;20.65;100.00
38939;BME280;24211;49.980;19.776;2023-03-22T12:41:35;98945.56;;;20.77;100.00
38939;BME280;24211;49.980;19.776;2023-03-22T12:44:15;98946.03;;;21.12;100.00
38939;BME280;24211;49.980;19.776;2023-03-22T12:47:00;98942.25;;;21.62;100.00
38939;BME280;24211;49.980;19.776;2023-03-22T12:49:52;98934.56;;;22.13;91.92
38939;BME280;24211;49.980;19.776;2023-03-22T12:52:32;98935.03;;;22.38;85.63
38939;BME280;24211;49.980;19.776;2023-03-22T12:55:34;98934.03;;;22.34;86.54
38939;BME280;24211;49.980;19.776;2023-03-22T12:58:08;98931.19;;;22.39;94.43
38939;BME280;24211;49.980;19.776;2023-03-22T13:01:16;98934.00;;;22.78;87.20
38939;BME280;24211;49.980;19.776;2023-03-22T13:03:52;98930.19;;;22.79;86.19
38939;BME280;24211;49.980;19.776;2023-03-22T13:09:19;98928.81;;;23.07;83.76
38939;BME280;24211;49.980;19.776;2023-03-22T13:17:43;98920.97;;;22.97;95.79
38939;BME280;24211;49.980;19.776;2023-03-22T13:28:17;98905.03;;;22.82;98.67
38939;BME280;24211;49.980;19.776;2023-03-22T13:30:49;98897.16;;;23.28;90.58
38939;BME280;24211;49.980;19.776;2023-03-22T13:33:28;98891.00;;;23.71;80.60
38939;BME280;24211;49.980;19.776;2023-03-22T13:36:24;98893.06;;;24.17;69.54
38939;BME280;24211;49.980;19.776;2023-03-22T13:38:58;98886.25;;;24.48;64.39
38939;BME280;24211;49.980;19.776;2023-03-22T13:41:32;98878.81;;;24.66;63.18
38939;BME280;24211;49.980;19.776;2023-03-22T13:44:40;98876.66;;;25.18;56.25
38939;BME280;24211;49.980;19.776;2023-03-22T13:47:44;98875.94;;;25.29;55.98
38939;BME280;24211;49.980;19.776;2023-03-22T13:50:27;98876.22;;;25.37;56.06
38939;BME280;24211;49.980;19.776;2023-03-22T13:53:27;98868.06;;;25.28;57.48
38939;BME280;24211;49.980;19.776;2023-03-22T13:56:05;98864.19;;;25.29;57.32
38939;BME280;24211;49.980;19.776;2023-03-22T13:58:51;98859.88;;;25.28;57.55
38939;BME280;24211;49.980;19.776;2023-03-22T14:01:33;98859.47;;;25.09;61.50
38939;BME280;24211;49.980;19.776;2023-03-22T14:04:10;98844.84;;;25.34;58.95
38939;BME280;24211;49.980;19.776;2023-03-22T14:06:57;98851.13;;;25.96;52.91
38939;BME280;24211;49.980;19.776;2023-03-22T14:09:42;98843.38;;;25.98;51.60
38939;BME280;24211;49.980;19.776;2023-03-22T14:15:02;98835.22;;;25.90;50.89
38939;BME280;24211;49.980;19.776;2023-03-22T14:17:49;98829.72;;;26.11;48.48
38939;BME280;24211;49.980;19.776;2023-03-22T14:20:23;98837.09;;;25.98;46.26
38939;BME280;24211;49.980;19.776;2023-03-22T14:23:13;98829.81;;;25.69;48.22
38939;BME280;24211;49.980;19.776;2023-03-22T14:25:41;98827.81;;;25.58;47.18
38939;BME280;24211;49.980;19.776;2023-03-22T14:28:19;98834.75;;;25.55;44.45
38939;BME280;24211;49.980;19.776;2023-03-22T14:30:47;98831.63;;;25.36;48.40
38939;BME280;24211;49.980;19.776;2023-03-22T14:33:19;98836.19;;;25.32;49.52
38939;BME280;24211;49.980;19.776;2023-03-22T14:35:55;98832.97;;;25.30;47.55
38939;BME280;24211;49.980;19.776;2023-03-22T14:38:38;98826.75;;;25.50;45.82